createdAt,value
2023-04-07T00:00:13.526Z,79.10
2023-04-07T00:02:44.346Z,79.20
2023-04-07T00:05:12.488Z,78.80
2023-04-07T00:07:52.337Z,78.30
2023-04-07T00:10:23.052Z,78.30
2023-04-07T00:12:50.771Z,78.40
2023-04-07T00:15:23.534Z,78.60
2023-04-07T00:17:52.544Z,78.60
2023-04-07T00:20:20.088Z,78.10
2023-04-07T00:22:48.055Z,78.00
2023-04-07T00:25:16.108Z,77.90
2023-04-07T00:27:43.422Z,78.60
2023-04-07T00:30:11.055Z,79.40
2023-04-07T00:32:38.496Z,79.90
2023-04-07T00:35:06.447Z,80.80
2023-04-07T00:37:33.838Z,80.80
2023-04-07T00:40:01.501Z,80.50
2023-04-07T00:42:29.134Z,80.90
2023-04-07T00:44:56.381Z,80.50
2023-04-07T00:47:23.779Z,79.90
2023-04-07T00:49:51.069Z,80.00
2023-04-07T00:52:19.497Z,79.70
2023-04-07T00:54:47.482Z,79.40
2023-04-07T00:57:15.536Z,79.20
2023-04-07T00:59:43.435Z,79.40
2023-04-07T01:02:15.214Z,79.70
2023-04-07T01:05:11.736Z,79.80
2023-04-07T01:07:45.019Z,79.80
2023-04-07T01:10:19.692Z,80.40
2023-04-07T01:13:09.429Z,80.70
2023-04-07T01:15:41.443Z,80.40
2023-04-07T01:18:21.102Z,80.20
2023-04-07T01:20:52.155Z,79.40
2023-04-07T01:23:42.217Z,80.30
2023-04-07T01:26:31.252Z,79.70
2023-04-07T01:29:31.498Z,79.60
2023-04-07T01:32:01.791Z,79.40
2023-04-07T01:34:32.248Z,79.20
2023-04-07T01:37:01.889Z,79.00
2023-04-07T01:39:30.413Z,79.80
2023-04-07T01:41:59.414Z,81.10
2023-04-07T01:44:27.255Z,81.60
2023-04-07T01:46:55.839Z,82.10
2023-04-07T01:49:24.925Z,82.50
2023-04-07T01:51:53.996Z,82.90
2023-04-07T01:54:22.808Z,82.00
2023-04-07T01:56:51.203Z,81.40
2023-04-07T01:59:18.563Z,81.20
2023-04-07T02:01:46.964Z,80.70
2023-04-07T02:04:28.499Z,80.40
2023-04-07T02:07:09.550Z,79.60
2023-04-07T02:09:43.929Z,79.30
2023-04-07T02:12:14.669Z,79.60
2023-04-07T02:14:52.259Z,80.00
2023-04-07T02:17:19.914Z,79.80
2023-04-07T02:19:48.004Z,79.70
2023-04-07T02:22:16.676Z,80.10
2023-04-07T02:24:44.177Z,80.00
2023-04-07T02:27:11.755Z,80.00
2023-04-07T02:29:39.248Z,79.70
2023-04-07T02:32:06.972Z,79.50
2023-04-07T02:34:34.240Z,79.60
2023-04-07T02:37:01.553Z,80.10
2023-04-07T02:39:29.156Z,80.30
2023-04-07T02:41:56.390Z,80.30
2023-04-07T02:44:23.658Z,80.10
2023-04-07T02:46:51.801Z,79.80
2023-04-07T02:49:18.989Z,79.70
2023-04-07T02:51:47.250Z,79.50
2023-04-07T02:54:14.619Z,79.30
2023-04-07T02:56:42.386Z,79.50
2023-04-07T02:59:09.961Z,79.70
2023-04-07T03:01:42.048Z,80.20
2023-04-07T03:04:10.690Z,79.60
2023-04-07T03:06:38.344Z,79.60
2023-04-07T03:09:15.629Z,79.60
2023-04-07T03:11:43.069Z,79.90
2023-04-07T03:14:11.213Z,80.70
2023-04-07T03:16:45.901Z,80.70
2023-04-07T03:19:14.452Z,80.60
2023-04-07T03:21:44.996Z,80.60
2023-04-07T03:24:12.374Z,80.50
2023-04-07T03:26:39.831Z,80.40
2023-04-07T03:29:15.109Z,80.20
2023-04-07T03:31:44.680Z,80.40
2023-04-07T03:34:14.544Z,81.80
2023-04-07T03:36:42.191Z,83.10
2023-04-07T03:39:09.892Z,83.20
2023-04-07T03:41:37.233Z,83.00
2023-04-07T03:44:05.793Z,82.40
2023-04-07T03:46:36.522Z,81.70
2023-04-07T03:49:05.171Z,81.40
2023-04-07T03:51:34.313Z,81.10
2023-04-07T03:54:04.832Z,81.40
2023-04-07T03:56:37.586Z,81.50
2023-04-07T03:59:05.551Z,81.50
2023-04-07T04:01:37.561Z,81.10
2023-04-07T04:04:11.501Z,80.70
2023-04-07T04:06:39.387Z,80.40
2023-04-07T04:09:16.360Z,80.00
2023-04-07T04:11:47.310Z,79.90
2023-04-07T04:14:16.078Z,79.90
2023-04-07T04:16:48.833Z,80.00
2023-04-07T04:19:45.970Z,80.90
2023-04-07T04:22:22.107Z,80.70
2023-04-07T04:24:53.984Z,81.00
2023-04-07T04:27:24.908Z,81.60
2023-04-07T04:29:59.493Z,81.70
2023-04-07T04:32:37.830Z,81.70
2023-04-07T04:35:07.948Z,81.60
2023-04-07T04:37:42.670Z,81.00
2023-04-07T04:40:12.956Z,81.60
2023-04-07T04:42:41.656Z,82.10
2023-04-07T04:45:11.576Z,82.50
2023-04-07T04:47:44.142Z,82.40
2023-04-07T04:50:12.397Z,82.40
2023-04-07T04:52:41.601Z,82.90
2023-04-07T04:55:16.365Z,84.30
2023-04-07T04:57:45.098Z,84.40
2023-04-07T05:00:17.292Z,83.90
2023-04-07T05:02:48.843Z,83.60
2023-04-07T05:05:16.612Z,83.70
2023-04-07T05:07:45.284Z,82.40
2023-04-07T05:10:14.904Z,82.10
2023-04-07T05:12:48.163Z,81.80
2023-04-07T05:15:16.788Z,81.40
2023-04-07T05:17:50.788Z,81.00
2023-04-07T05:20:24.578Z,80.70
2023-04-07T05:22:53.352Z,80.50
2023-04-07T05:25:26.412Z,80.90
2023-04-07T05:27:59.933Z,81.00
2023-04-07T05:30:29.992Z,81.50
2023-04-07T05:32:58.601Z,82.10
2023-04-07T05:35:58.429Z,81.60
2023-04-07T05:38:26.640Z,81.30
2023-04-07T05:40:58.551Z,81.10
2023-04-07T05:43:30.906Z,80.80
2023-04-07T05:45:58.753Z,80.60
2023-04-07T05:48:26.647Z,80.40
2023-04-07T05:50:55.770Z,80.00
2023-04-07T05:53:23.612Z,79.90
2023-04-07T05:55:51.847Z,79.90
2023-04-07T05:58:35.126Z,79.80
2023-04-07T06:01:02.675Z,79.90
2023-04-07T06:03:30.085Z,79.80
2023-04-07T06:06:17.921Z,80.00
2023-04-07T06:08:47.353Z,79.60
2023-04-07T06:11:15.997Z,79.90
2023-04-07T06:13:43.845Z,79.60
2023-04-07T06:16:11.639Z,79.80
2023-04-07T06:18:38.894Z,79.50
2023-04-07T06:21:07.588Z,79.20
2023-04-07T06:23:34.873Z,79.90
2023-04-07T06:26:02.279Z,79.60
2023-04-07T06:28:30.526Z,79.50
2023-04-07T06:30:59.628Z,79.10
2023-04-07T06:33:28.672Z,78.70
2023-04-07T06:35:57.266Z,78.80
2023-04-07T06:38:25.738Z,78.60
2023-04-07T06:40:53.072Z,78.50
2023-04-07T06:43:20.426Z,78.50
2023-04-07T06:45:56.632Z,78.40
2023-04-07T06:48:24.584Z,78.70
2023-04-07T06:50:52.135Z,78.30
2023-04-07T06:53:19.474Z,78.00
2023-04-07T06:55:47.433Z,78.20
2023-04-07T06:58:14.669Z,77.80
2023-04-07T07:00:43.108Z,77.80
2023-04-07T07:03:11.533Z,77.40
2023-04-07T07:05:38.806Z,77.30
2023-04-07T07:08:06.352Z,76.90
2023-04-07T07:10:33.867Z,76.80
2023-04-07T07:13:01.114Z,76.30
2023-04-07T07:15:30.868Z,76.30
2023-04-07T07:17:59.064Z,76.50
2023-04-07T07:20:27.834Z,75.30
2023-04-07T07:22:55.283Z,75.30
2023-04-07T07:25:22.947Z,74.90
2023-04-07T07:27:53.519Z,74.80
2023-04-07T07:30:27.982Z,74.30
2023-04-07T07:32:56.679Z,74.60
2023-04-07T07:35:25.689Z,74.10
2023-04-07T07:37:53.289Z,75.30
2023-04-07T07:40:20.599Z,75.50
2023-04-07T07:42:48.015Z,74.80
2023-04-07T07:45:17.161Z,74.00
2023-04-07T07:47:45.749Z,74.10
2023-04-07T07:50:13.150Z,74.10
2023-04-07T07:52:40.793Z,73.60
2023-04-07T07:55:10.318Z,73.20
2023-04-07T07:57:37.913Z,72.70
2023-04-07T08:00:10.836Z,72.10
2023-04-07T08:02:41.729Z,71.60
2023-04-07T08:05:10.884Z,71.10
2023-04-07T08:08:18.303Z,71.30
2023-04-07T08:10:55.410Z,69.70
2023-04-07T08:13:23.668Z,69.30
2023-04-07T08:15:51.235Z,69.50
2023-04-07T08:22:13.695Z,68.50
2023-04-07T08:24:41.578Z,68.50
2023-04-07T08:27:08.804Z,68.40
2023-04-07T08:29:36.175Z,68.40
2023-04-07T08:32:03.862Z,67.20
2023-04-07T08:34:31.237Z,68.30
2023-04-07T08:36:58.542Z,67.80
2023-04-07T08:39:25.906Z,66.70
2023-04-07T08:41:55.443Z,66.20
2023-04-07T08:44:24.103Z,67.30
2023-04-07T08:46:53.520Z,65.10
2023-04-07T08:49:23.021Z,65.80
2023-04-07T08:51:52.056Z,65.80
2023-04-07T08:54:21.756Z,65.60
2023-04-07T08:56:49.492Z,65.30
2023-04-07T08:59:25.953Z,65.40
2023-04-07T09:01:54.060Z,64.50
2023-04-07T09:04:23.246Z,66.20
2023-04-07T09:06:51.313Z,65.30
2023-04-07T09:09:18.925Z,65.10
2023-04-07T09:11:48.505Z,65.00
2023-04-07T09:14:16.644Z,64.30
2023-04-07T09:16:44.349Z,64.60
2023-04-07T09:19:11.640Z,64.30
2023-04-07T09:21:50.093Z,64.10
2023-04-07T09:24:28.580Z,64.30
2023-04-07T09:27:17.252Z,65.00
2023-04-07T09:29:47.206Z,64.90
2023-04-07T09:32:45.259Z,63.50
2023-04-07T09:35:13.057Z,63.00
2023-04-07T09:37:40.494Z,63.50
2023-04-07T09:40:10.746Z,63.40
2023-04-07T09:42:49.651Z,62.20
2023-04-07T09:45:34.432Z,63.00
2023-04-07T09:48:09.005Z,62.10
2023-04-07T09:50:49.724Z,61.30
2023-04-07T09:53:18.307Z,60.70
2023-04-07T09:55:46.545Z,60.60
2023-04-07T09:58:14.829Z,60.00
2023-04-07T10:00:44.263Z,59.60
2023-04-07T10:03:12.447Z,59.50
2023-04-07T10:05:40.628Z,60.10
2023-04-07T10:08:08.141Z,60.20
2023-04-07T10:10:37.289Z,57.70
2023-04-07T10:13:07.189Z,58.40
2023-04-07T10:15:39.455Z,57.70
2023-04-07T10:18:09.112Z,56.90
2023-04-07T10:20:41.728Z,56.10
2023-04-07T10:23:50.320Z,56.20
2023-04-07T10:26:21.316Z,55.10
2023-04-07T10:28:53.950Z,55.30
2023-04-07T10:31:23.170Z,55.40
2023-04-07T10:33:55.037Z,57.00
2023-04-07T10:36:22.728Z,56.80
2023-04-07T10:39:19.981Z,56.70
2023-04-07T10:41:47.734Z,57.60
2023-04-07T10:44:41.008Z,58.10
2023-04-07T10:47:08.893Z,57.80
2023-04-07T10:49:36.760Z,58.20
2023-04-07T10:52:13.381Z,55.90
2023-04-07T10:54:42.739Z,57.10
2023-04-07T10:57:12.956Z,54.50
2023-04-07T10:59:47.360Z,53.70
2023-04-07T11:02:14.898Z,52.50
2023-04-07T11:04:44.753Z,52.40
2023-04-07T11:07:14.094Z,51.60
2023-04-07T11:09:42.408Z,53.00
2023-04-07T11:12:22.374Z,51.80
2023-04-07T11:14:50.338Z,51.50
2023-04-07T11:17:17.773Z,54.30
2023-04-07T11:19:54.560Z,53.70
2023-04-07T11:22:29.739Z,54.80
2023-04-07T11:24:57.974Z,55.20
2023-04-07T11:27:28.682Z,53.20
2023-04-07T11:29:57.430Z,54.10
2023-04-07T11:32:30.493Z,54.60
2023-04-07T11:34:58.090Z,53.60
2023-04-07T11:37:28.983Z,53.30
2023-04-07T11:39:58.375Z,53.80
2023-04-07T11:42:36.409Z,52.70
2023-04-07T11:45:05.980Z,53.50
2023-04-07T11:47:39.007Z,52.30
2023-04-07T11:50:08.343Z,52.10
2023-04-07T11:52:46.558Z,53.30
2023-04-07T11:55:22.398Z,53.00
2023-04-07T11:57:52.849Z,54.70
2023-04-07T12:00:25.834Z,55.20
2023-04-07T12:02:53.672Z,55.10
2023-04-07T12:05:21.219Z,54.30
2023-04-07T12:07:55.868Z,55.00
2023-04-07T12:10:28.837Z,54.40
2023-04-07T12:12:59.308Z,54.60
2023-04-07T12:15:29.271Z,54.60
2023-04-07T12:17:57.464Z,54.60
2023-04-07T12:20:24.732Z,55.60
2023-04-07T12:22:53.084Z,55.10
2023-04-07T12:25:20.792Z,55.50
2023-04-07T12:27:48.050Z,54.10
2023-04-07T12:30:16.949Z,53.90
2023-04-07T12:32:45.600Z,54.80
2023-04-07T12:35:13.460Z,55.50
2023-04-07T12:37:40.832Z,55.20
2023-04-07T12:40:08.795Z,53.80
2023-04-07T12:42:36.366Z,55.40
2023-04-07T12:45:04.633Z,53.60
2023-04-07T12:47:34.397Z,54.20
2023-04-07T12:50:02.158Z,53.80
2023-04-07T12:52:30.229Z,54.60
2023-04-07T12:54:58.824Z,53.60
2023-04-07T12:57:26.315Z,53.00
2023-04-07T12:59:54.527Z,54.10
2023-04-07T13:02:22.192Z,53.30
2023-04-07T13:04:50.560Z,53.00
2023-04-07T13:07:18.497Z,53.40
2023-04-07T13:09:45.781Z,53.20
2023-04-07T13:12:13.412Z,53.60
2023-04-07T13:14:53.104Z,54.30
2023-04-07T13:17:24.696Z,54.10
2023-04-07T13:19:52.755Z,54.60
2023-04-07T13:22:22.033Z,54.90
2023-04-07T13:24:52.118Z,55.30
2023-04-07T13:27:19.354Z,55.70
2023-04-07T13:29:46.612Z,58.10
2023-04-07T13:32:15.080Z,56.90
2023-04-07T13:34:42.409Z,57.50
2023-04-07T13:37:11.000Z,57.20
2023-04-07T13:39:38.545Z,56.90
2023-04-07T13:42:07.145Z,56.50
2023-04-07T13:44:34.949Z,58.10
2023-04-07T13:47:03.435Z,57.40
2023-04-07T13:49:31.554Z,60.10
2023-04-07T13:51:58.782Z,58.30
2023-04-07T13:54:26.285Z,58.00
2023-04-07T13:56:54.080Z,57.70
2023-04-07T13:59:21.866Z,58.90
2023-04-07T14:01:50.211Z,58.00
2023-04-07T14:04:17.664Z,58.00
2023-04-07T14:06:45.097Z,59.20
2023-04-07T14:09:12.738Z,58.30
2023-04-07T14:11:40.224Z,59.00
2023-04-07T14:14:08.137Z,58.70
2023-04-07T14:16:35.545Z,58.90
2023-04-07T14:19:02.825Z,59.50
2023-04-07T14:21:32.052Z,59.70
2023-04-07T14:24:00.345Z,60.00
2023-04-07T14:26:28.182Z,60.00
2023-04-07T14:28:55.844Z,60.90
2023-04-07T14:31:23.464Z,60.50
2023-04-07T14:33:51.363Z,60.90
2023-04-07T14:36:18.972Z,60.60
2023-04-07T14:38:46.228Z,59.50
2023-04-07T14:41:13.603Z,59.20
2023-04-07T14:43:41.482Z,59.00
2023-04-07T14:46:09.369Z,59.50
2023-04-07T14:48:36.813Z,60.60
2023-04-07T14:51:09.764Z,59.80
2023-04-07T14:53:37.739Z,60.60
2023-04-07T14:56:06.924Z,61.10
2023-04-07T14:58:37.485Z,61.60
2023-04-07T15:01:06.692Z,63.20
2023-04-07T15:03:37.349Z,63.00
2023-04-07T15:06:12.319Z,63.50
2023-04-07T15:08:41.029Z,64.00
2023-04-07T15:11:09.326Z,64.40
2023-04-07T15:13:36.916Z,64.50
2023-04-07T15:16:12.437Z,64.20
2023-04-07T15:18:42.495Z,65.20
2023-04-07T15:21:11.436Z,65.60
2023-04-07T15:23:39.446Z,65.60
2023-04-07T15:26:07.003Z,66.00
2023-04-07T15:28:34.800Z,66.50
2023-04-07T15:31:02.451Z,67.50
2023-04-07T15:33:30.493Z,66.90
2023-04-07T15:35:59.420Z,66.10
2023-04-07T15:38:28.378Z,65.80
2023-04-07T15:40:55.619Z,65.70
2023-04-07T15:43:23.048Z,65.30
2023-04-07T15:45:51.638Z,65.20
2023-04-07T15:48:19.332Z,65.00
2023-04-07T15:50:47.155Z,64.60
2023-04-07T15:53:14.834Z,65.10
2023-04-07T15:55:44.287Z,65.30
2023-04-07T15:58:11.957Z,65.10
2023-04-07T16:00:42.205Z,65.00
2023-04-07T16:03:43.893Z,65.00
2023-04-07T16:06:15.804Z,63.80
2023-04-07T16:08:44.984Z,62.80
2023-04-07T16:11:12.889Z,62.20
2023-04-07T16:13:40.191Z,61.40
2023-04-07T16:16:07.948Z,59.40
2023-04-07T16:18:35.390Z,59.10
2023-04-07T16:21:04.652Z,59.60
2023-04-07T16:23:32.366Z,59.30
2023-04-07T16:25:59.785Z,58.80
2023-04-07T16:28:27.373Z,58.70
2023-04-07T16:30:54.784Z,58.70
2023-04-07T16:33:25.914Z,58.60
2023-04-07T16:35:53.762Z,58.80
2023-04-07T16:38:21.303Z,60.60
2023-04-07T16:41:02.813Z,64.10
2023-04-07T16:43:32.119Z,65.20
2023-04-07T16:46:00.376Z,66.20
2023-04-07T16:48:27.948Z,66.80
2023-04-07T16:50:55.950Z,66.90
2023-04-07T16:53:23.176Z,67.40
2023-04-07T16:55:51.187Z,67.70
2023-04-07T16:58:19.852Z,67.50
2023-04-07T17:00:47.232Z,68.00
2023-04-07T17:03:15.719Z,68.30
2023-04-07T17:05:44.925Z,68.50
2023-04-07T17:08:13.190Z,68.50
2023-04-07T17:10:40.477Z,69.00
2023-04-07T17:13:07.787Z,69.30
2023-04-07T17:15:40.431Z,69.70
2023-04-07T17:18:08.890Z,69.90
2023-04-07T17:20:36.426Z,70.00
2023-04-07T17:23:03.746Z,70.10
2023-04-07T17:25:31.384Z,70.30
2023-04-07T17:27:58.594Z,70.30
2023-04-07T17:30:27.726Z,70.10
2023-04-07T17:32:55.454Z,70.20
2023-04-07T17:35:23.058Z,70.60
2023-04-07T17:37:52.306Z,70.50
2023-04-07T17:40:19.976Z,70.20
2023-04-07T17:42:47.313Z,70.10
2023-04-07T17:45:15.550Z,70.10
2023-04-07T17:47:46.522Z,70.40
2023-04-07T17:50:14.719Z,70.20
2023-04-07T17:52:42.088Z,70.50
2023-04-07T17:55:09.950Z,70.70
2023-04-07T17:57:37.332Z,70.80
2023-04-07T18:00:07.846Z,70.70
2023-04-07T18:02:42.437Z,71.10
2023-04-07T18:05:10.910Z,70.70
2023-04-07T18:07:39.011Z,70.50
2023-04-07T18:10:07.126Z,70.60
2023-04-07T18:12:34.672Z,70.60
2023-04-07T18:15:02.097Z,70.70
2023-04-07T18:17:30.995Z,70.80
2023-04-07T18:19:58.701Z,70.60
2023-04-07T18:22:27.909Z,70.90
2023-04-07T18:24:55.369Z,70.50
2023-04-07T18:27:25.292Z,70.50
2023-04-07T18:29:52.834Z,70.80
2023-04-07T18:32:20.648Z,70.80
2023-04-07T18:34:48.293Z,70.80
2023-04-07T18:37:16.110Z,70.50
2023-04-07T18:39:43.614Z,70.90
2023-04-07T18:42:11.506Z,70.80
2023-04-07T18:44:38.761Z,70.60
2023-04-07T18:47:06.465Z,70.40
2023-04-07T18:49:34.210Z,70.10
2023-04-07T18:52:01.811Z,70.20
2023-04-07T18:54:29.252Z,70.20
2023-04-07T18:56:57.223Z,69.70
2023-04-07T18:59:26.726Z,69.90
2023-04-07T19:01:55.772Z,70.00
2023-04-07T19:04:25.027Z,70.50
2023-04-07T19:06:54.019Z,69.90
2023-04-07T19:09:21.933Z,70.10
2023-04-07T19:11:49.512Z,69.90
2023-04-07T19:14:17.039Z,70.10
2023-04-07T19:16:44.860Z,69.50
2023-04-07T19:19:13.423Z,69.70
2023-04-07T19:21:41.459Z,69.50
2023-04-07T19:24:09.305Z,69.70
2023-04-07T19:26:36.955Z,69.60
2023-04-07T19:29:04.615Z,69.60
2023-04-07T19:31:32.468Z,69.90
2023-04-07T19:34:02.550Z,70.10
2023-04-07T19:36:31.770Z,69.70
2023-04-07T19:38:59.546Z,70.10
2023-04-07T19:41:27.886Z,69.80
2023-04-07T19:43:55.604Z,70.40
2023-04-07T19:46:23.142Z,70.40
2023-04-07T19:48:51.700Z,69.90
2023-04-07T19:51:19.532Z,69.90
2023-04-07T19:53:47.472Z,70.10
2023-04-07T19:56:16.925Z,69.70
2023-04-07T19:58:44.540Z,69.90
2023-04-07T20:01:18.662Z,71.00
2023-04-07T20:03:47.296Z,71.00
2023-04-07T20:06:15.405Z,71.60
2023-04-07T20:08:43.189Z,72.30
2023-04-07T20:11:13.559Z,72.50
2023-04-07T20:13:41.885Z,73.00
2023-04-07T20:16:10.575Z,73.40
2023-04-07T20:18:38.318Z,73.80
2023-04-07T20:21:06.321Z,73.80
2023-04-07T20:23:35.619Z,73.90
2023-04-07T20:26:03.497Z,74.40
2023-04-07T20:28:32.337Z,74.90
2023-04-07T20:31:00.008Z,74.60
2023-04-07T20:33:27.337Z,75.10
2023-04-07T20:35:54.999Z,75.30
2023-04-07T20:38:22.573Z,75.20
2023-04-07T20:40:51.173Z,74.50
2023-04-07T20:43:22.059Z,74.50
2023-04-07T20:45:50.536Z,74.50
2023-04-07T20:48:23.607Z,74.30
2023-04-07T20:51:02.759Z,74.30
2023-04-07T20:53:30.566Z,74.50
2023-04-07T20:55:59.247Z,74.60
2023-04-07T20:58:27.373Z,74.80
2023-04-07T21:01:00.129Z,74.30
2023-04-07T21:03:29.358Z,74.40
2023-04-07T21:05:57.559Z,75.30
2023-04-07T21:08:24.893Z,75.80
2023-04-07T21:10:53.570Z,76.00
2023-04-07T21:13:22.652Z,76.10
2023-04-07T21:15:50.432Z,75.10
2023-04-07T21:18:19.181Z,75.00
2023-04-07T21:20:46.962Z,75.50
2023-04-07T21:23:14.313Z,75.30
2023-04-07T21:25:41.622Z,75.20
2023-04-07T21:28:09.537Z,75.20
2023-04-07T21:30:45.511Z,76.00
2023-04-07T21:33:14.481Z,76.20
2023-04-07T21:35:41.999Z,75.80
2023-04-07T21:38:09.360Z,76.10
2023-04-07T21:40:36.882Z,76.60
2023-04-07T21:43:04.500Z,76.70
2023-04-07T21:45:34.157Z,77.10
2023-04-07T21:48:02.338Z,77.00
2023-04-07T21:50:30.525Z,77.10
2023-04-07T21:52:57.906Z,76.80
2023-04-07T21:55:25.296Z,76.70
2023-04-07T21:57:52.913Z,76.40
2023-04-07T22:00:25.799Z,76.20
2023-04-07T22:02:54.928Z,76.50
2023-04-07T22:05:22.584Z,76.60
2023-04-07T22:07:50.433Z,76.90
2023-04-07T22:10:18.132Z,76.50
2023-04-07T22:12:45.770Z,76.70
2023-04-07T22:15:14.432Z,76.90
2023-04-07T22:17:42.299Z,77.60
2023-04-07T22:20:11.198Z,77.30
2023-04-07T22:22:38.958Z,77.00
2023-04-07T22:25:06.942Z,77.70
2023-04-07T22:27:35.444Z,78.20
2023-04-07T22:30:04.949Z,78.90
2023-04-07T22:32:33.068Z,79.80
2023-04-07T22:35:00.489Z,80.00
2023-04-07T22:37:27.864Z,79.20
2023-04-07T22:39:55.037Z,78.80
2023-04-07T22:42:22.568Z,78.50
2023-04-07T22:44:50.264Z,78.30
2023-04-07T22:47:17.670Z,77.80
2023-04-07T22:49:44.920Z,77.80
2023-04-07T22:52:12.642Z,78.20
2023-04-07T22:54:39.877Z,78.20
2023-04-07T22:57:07.103Z,78.70
2023-04-07T22:59:34.923Z,79.00
2023-04-07T23:02:02.290Z,79.90
2023-04-07T23:04:29.729Z,79.90
2023-04-07T23:06:57.155Z,79.80
2023-04-07T23:09:24.511Z,80.00
2023-04-07T23:11:51.961Z,79.90
2023-04-07T23:14:19.628Z,79.40
2023-04-07T23:16:47.251Z,79.40
2023-04-07T23:19:16.033Z,79.10
2023-04-07T23:21:44.050Z,79.20
2023-04-07T23:24:11.394Z,78.60
2023-04-07T23:26:38.597Z,78.40
2023-04-07T23:29:07.202Z,78.50
2023-04-07T23:31:35.548Z,78.20
2023-04-07T23:34:04.059Z,78.00
2023-04-07T23:36:31.736Z,78.40
2023-04-07T23:38:59.027Z,78.30
2023-04-07T23:41:27.130Z,78.80
2023-04-07T23:43:55.115Z,79.60
2023-04-07T23:46:23.357Z,80.50
2023-04-07T23:48:51.141Z,80.40
2023-04-07T23:51:18.782Z,80.30
2023-04-07T23:53:46.449Z,80.40
2023-04-07T23:56:13.680Z,80.10
2023-04-07T23:58:41.079Z,79.40
